sensor_id;sensor_type;location;lat;lon;timestamp;P1;durP1;ratioP1;P2;durP2;ratioP2
75700;SDS011;64321;48.796;44.740;2023-03-03T00:04:03;4.15;;;2.10;;
75700;SDS011;64321;48.796;44.740;2023-03-03T00:09:05;3.38;;;2.20;;
75700;SDS011;64321;48.796;44.740;2023-03-03T00:14:17;3.00;;;1.15;;
75700;SDS011;64321;48.796;44.740;2023-03-03T00:19:21;3.40;;;1.33;;
75700;SDS011;64321;48.796;44.740;2023-03-03T00:24:26;3.05;;;0.77;;
75700;SDS011;64321;48.796;44.740;2023-03-03T00:29:36;3.90;;;1.65;;
75700;SDS011;64321;48.796;44.740;2023-03-03T00:39:42;3.33;;;1.50;;
75700;SDS011;64321;48.796;44.740;2023-03-03T00:44:45;5.47;;;1.52;;
75700;SDS011;64321;48.796;44.740;2023-03-03T00:49:48;2.65;;;1.65;;
75700;SDS011;64321;48.796;44.740;2023-03-03T00:54:50;4.10;;;1.52;;
75700;SDS011;64321;48.796;44.740;2023-03-03T00:59:52;3.28;;;1.33;;
75700;SDS011;64321;48.796;44.740;2023-03-03T01:04:54;4.95;;;1.75;;
75700;SDS011;64321;48.796;44.740;2023-03-03T01:09:57;3.78;;;1.30;;
75700;SDS011;64321;48.796;44.740;2023-03-03T01:15:00;4.72;;;1.65;;
75700;SDS011;64321;48.796;44.740;2023-03-03T01:20:03;2.65;;;1.35;;
75700;SDS011;64321;48.796;44.740;2023-03-03T01:25:06;3.25;;;1.30;;
75700;SDS011;64321;48.796;44.740;2023-03-03T01:30:09;3.22;;;1.42;;
75700;SDS011;64321;48.796;44.740;2023-03-03T01:35:11;3.20;;;1.38;;
75700;SDS011;64321;48.796;44.740;2023-03-03T01:40:15;4.43;;;1.55;;
75700;SDS011;64321;48.796;44.740;2023-03-03T01:50:30;2.00;;;0.90;;
75700;SDS011;64321;48.796;44.740;2023-03-03T01:55:34;2.70;;;1.67;;
75700;SDS011;64321;48.796;44.740;2023-03-03T02:00:38;3.83;;;1.75;;
75700;SDS011;64321;48.796;44.740;2023-03-03T02:05:41;3.95;;;1.65;;
75700;SDS011;64321;48.796;44.740;2023-03-03T02:10:45;2.20;;;1.30;;
75700;SDS011;64321;48.796;44.740;2023-03-03T02:15:47;5.57;;;1.35;;
75700;SDS011;64321;48.796;44.740;2023-03-03T02:20:57;3.22;;;1.58;;
75700;SDS011;64321;48.796;44.740;2023-03-03T02:26:15;3.47;;;1.55;;
75700;SDS011;64321;48.796;44.740;2023-03-03T02:31:20;4.30;;;1.73;;
75700;SDS011;64321;48.796;44.740;2023-03-03T02:36:24;3.97;;;1.83;;
75700;SDS011;64321;48.796;44.740;2023-03-03T02:41:51;4.18;;;1.40;;
75700;SDS011;64321;48.796;44.740;2023-03-03T02:46:51;2.85;;;1.40;;
75700;SDS011;64321;48.796;44.740;2023-03-03T02:51:54;3.55;;;1.10;;
75700;SDS011;64321;48.796;44.740;2023-03-03T02:56:58;5.28;;;2.42;;
75700;SDS011;64321;48.796;44.740;2023-03-03T03:02:01;5.07;;;1.85;;
75700;SDS011;64321;48.796;44.740;2023-03-03T03:07:03;4.05;;;1.40;;
75700;SDS011;64321;48.796;44.740;2023-03-03T03:12:08;3.10;;;1.65;;
75700;SDS011;64321;48.796;44.740;2023-03-03T03:17:10;3.38;;;1.50;;
75700;SDS011;64321;48.796;44.740;2023-03-03T03:22:14;2.70;;;1.10;;
75700;SDS011;64321;48.796;44.740;2023-03-03T03:27:16;2.50;;;1.27;;
75700;SDS011;64321;48.796;44.740;2023-03-03T03:32:21;3.25;;;1.27;;
75700;SDS011;64321;48.796;44.740;2023-03-03T03:37:24;3.15;;;1.25;;
75700;SDS011;64321;48.796;44.740;2023-03-03T03:42:26;3.03;;;1.35;;
75700;SDS011;64321;48.796;44.740;2023-03-03T03:47:30;4.32;;;1.17;;
75700;SDS011;64321;48.796;44.740;2023-03-03T03:52:33;3.30;;;1.70;;
75700;SDS011;64321;48.796;44.740;2023-03-03T03:57:37;3.42;;;1.55;;
75700;SDS011;64321;48.796;44.740;2023-03-03T04:02:39;3.67;;;1.58;;
75700;SDS011;64321;48.796;44.740;2023-03-03T04:07:45;2.58;;;1.17;;
75700;SDS011;64321;48.796;44.740;2023-03-03T04:12:50;4.63;;;1.77;;
75700;SDS011;64321;48.796;44.740;2023-03-03T04:17:52;3.47;;;1.05;;
75700;SDS011;64321;48.796;44.740;2023-03-03T04:22:54;4.03;;;1.40;;
75700;SDS011;64321;48.796;44.740;2023-03-03T04:27:59;4.90;;;1.85;;
75700;SDS011;64321;48.796;44.740;2023-03-03T04:33:01;5.38;;;1.55;;
75700;SDS011;64321;48.796;44.740;2023-03-03T04:38:04;3.97;;;1.45;;
75700;SDS011;64321;48.796;44.740;2023-03-03T04:43:08;6.75;;;1.75;;
75700;SDS011;64321;48.796;44.740;2023-03-03T04:48:11;5.03;;;1.38;;
75700;SDS011;64321;48.796;44.740;2023-03-03T04:53:14;3.88;;;1.73;;
75700;SDS011;64321;48.796;44.740;2023-03-03T04:58:17;7.80;;;2.00;;
75700;SDS011;64321;48.796;44.740;2023-03-03T05:03:20;6.50;;;2.47;;
75700;SDS011;64321;48.796;44.740;2023-03-03T05:08:23;5.47;;;2.00;;
75700;SDS011;64321;48.796;44.740;2023-03-03T05:13:25;3.53;;;1.13;;
75700;SDS011;64321;48.796;44.740;2023-03-03T05:18:30;4.68;;;1.40;;
75700;SDS011;64321;48.796;44.740;2023-03-03T05:23:32;5.38;;;1.50;;
75700;SDS011;64321;48.796;44.740;2023-03-03T05:28:35;5.72;;;1.98;;
75700;SDS011;64321;48.796;44.740;2023-03-03T05:33:37;5.22;;;2.00;;
75700;SDS011;64321;48.796;44.740;2023-03-03T05:38:39;3.22;;;1.90;;
75700;SDS011;64321;48.796;44.740;2023-03-03T05:43:41;3.65;;;1.77;;
75700;SDS011;64321;48.796;44.740;2023-03-03T05:48:43;5.78;;;2.05;;
75700;SDS011;64321;48.796;44.740;2023-03-03T05:53:46;4.78;;;2.28;;
75700;SDS011;64321;48.796;44.740;2023-03-03T05:58:48;4.72;;;2.42;;
75700;SDS011;64321;48.796;44.740;2023-03-03T06:03:50;6.00;;;2.13;;
75700;SDS011;64321;48.796;44.740;2023-03-03T06:08:52;5.53;;;2.35;;
75700;SDS011;64321;48.796;44.740;2023-03-03T06:13:57;4.72;;;1.92;;
75700;SDS011;64321;48.796;44.740;2023-03-03T06:19:00;3.95;;;2.28;;
75700;SDS011;64321;48.796;44.740;2023-03-03T06:24:02;5.00;;;1.35;;
75700;SDS011;64321;48.796;44.740;2023-03-03T06:29:04;4.65;;;2.00;;
75700;SDS011;64321;48.796;44.740;2023-03-03T06:34:07;3.22;;;1.67;;
75700;SDS011;64321;48.796;44.740;2023-03-03T06:39:09;4.30;;;1.70;;
75700;SDS011;64321;48.796;44.740;2023-03-03T06:44:11;4.40;;;1.85;;
75700;SDS011;64321;48.796;44.740;2023-03-03T06:49:13;3.85;;;2.00;;
75700;SDS011;64321;48.796;44.740;2023-03-03T06:54:26;5.05;;;1.52;;
75700;SDS011;64321;48.796;44.740;2023-03-03T06:59:31;7.05;;;2.47;;
75700;SDS011;64321;48.796;44.740;2023-03-03T07:04:33;5.13;;;2.50;;
75700;SDS011;64321;48.796;44.740;2023-03-03T07:09:36;6.35;;;2.50;;
75700;SDS011;64321;48.796;44.740;2023-03-03T07:14:41;5.22;;;2.72;;
75700;SDS011;64321;48.796;44.740;2023-03-03T07:19:43;3.10;;;1.75;;
75700;SDS011;64321;48.796;44.740;2023-03-03T07:24:46;6.65;;;2.83;;
75700;SDS011;64321;48.796;44.740;2023-03-03T07:29:53;9.25;;;2.83;;
75700;SDS011;64321;48.796;44.740;2023-03-03T07:34:55;6.22;;;4.03;;
75700;SDS011;64321;48.796;44.740;2023-03-03T07:39:57;8.65;;;3.05;;
75700;SDS011;64321;48.796;44.740;2023-03-03T07:45:01;9.88;;;3.88;;
75700;SDS011;64321;48.796;44.740;2023-03-03T07:50:22;12.48;;;2.50;;
75700;SDS011;64321;48.796;44.740;2023-03-03T07:55:26;8.25;;;3.28;;
75700;SDS011;64321;48.796;44.740;2023-03-03T08:10:40;7.57;;;4.18;;
75700;SDS011;64321;48.796;44.740;2023-03-03T08:15:45;7.47;;;3.88;;
75700;SDS011;64321;48.796;44.740;2023-03-03T08:20:55;7.97;;;3.40;;
75700;SDS011;64321;48.796;44.740;2023-03-03T08:25:57;8.30;;;3.53;;
75700;SDS011;64321;48.796;44.740;2023-03-03T08:30:59;9.48;;;3.55;;
75700;SDS011;64321;48.796;44.740;2023-03-03T08:36:20;6.80;;;3.03;;
75700;SDS011;64321;48.796;44.740;2023-03-03T08:41:22;8.45;;;4.00;;
75700;SDS011;64321;48.796;44.740;2023-03-03T08:46:25;11.57;;;4.50;;
75700;SDS011;64321;48.796;44.740;2023-03-03T08:51:27;9.38;;;4.57;;
75700;SDS011;64321;48.796;44.740;2023-03-03T08:56:30;11.65;;;5.15;;
75700;SDS011;64321;48.796;44.740;2023-03-03T09:01:32;11.27;;;4.63;;
75700;SDS011;64321;48.796;44.740;2023-03-03T09:06:35;11.02;;;4.60;;
75700;SDS011;64321;48.796;44.740;2023-03-03T09:11:37;10.90;;;4.85;;
75700;SDS011;64321;48.796;44.740;2023-03-03T09:16:42;10.23;;;5.28;;
75700;SDS011;64321;48.796;44.740;2023-03-03T09:21:46;11.05;;;5.20;;
75700;SDS011;64321;48.796;44.740;2023-03-03T09:26:48;10.13;;;5.82;;
75700;SDS011;64321;48.796;44.740;2023-03-03T09:31:51;11.07;;;4.68;;
75700;SDS011;64321;48.796;44.740;2023-03-03T09:36:54;12.00;;;6.05;;
75700;SDS011;64321;48.796;44.740;2023-03-03T09:47:30;11.18;;;5.18;;
75700;SDS011;64321;48.796;44.740;2023-03-03T09:57:59;13.18;;;4.50;;
75700;SDS011;64321;48.796;44.740;2023-03-03T10:03:33;11.43;;;5.47;;
75700;SDS011;64321;48.796;44.740;2023-03-03T10:08:43;12.80;;;6.10;;
75700;SDS011;64321;48.796;44.740;2023-03-03T10:14:08;12.05;;;5.95;;
75700;SDS011;64321;48.796;44.740;2023-03-03T10:19:31;16.45;;;6.10;;
75700;SDS011;64321;48.796;44.740;2023-03-03T10:24:46;9.65;;;4.80;;
75700;SDS011;64321;48.796;44.740;2023-03-03T11:00:58;11.88;;;5.85;;
75700;SDS011;64321;48.796;44.740;2023-03-03T11:26:26;12.00;;;5.40;;
75700;SDS011;64321;48.796;44.740;2023-03-03T11:36:36;9.85;;;4.43;;
75700;SDS011;64321;48.796;44.740;2023-03-03T11:41:41;9.20;;;5.35;;
75700;SDS011;64321;48.796;44.740;2023-03-03T11:51:48;12.18;;;5.05;;
75700;SDS011;64321;48.796;44.740;2023-03-03T11:56:53;14.93;;;5.78;;
75700;SDS011;64321;48.796;44.740;2023-03-03T12:12:23;9.40;;;5.30;;
75700;SDS011;64321;48.796;44.740;2023-03-03T12:17:35;12.02;;;5.68;;
75700;SDS011;64321;48.796;44.740;2023-03-03T12:38:17;11.13;;;4.45;;
75700;SDS011;64321;48.796;44.740;2023-03-03T12:48:25;10.55;;;4.90;;
75700;SDS011;64321;48.796;44.740;2023-03-03T13:19:29;13.68;;;6.10;;
75700;SDS011;64321;48.796;44.740;2023-03-03T13:30:07;16.00;;;6.10;;
75700;SDS011;64321;48.796;44.740;2023-03-03T13:35:52;11.25;;;5.03;;
75700;SDS011;64321;48.796;44.740;2023-03-03T13:40:45;9.38;;;4.15;;
75700;SDS011;64321;48.796;44.740;2023-03-03T13:45:55;10.13;;;4.93;;
75700;SDS011;64321;48.796;44.740;2023-03-03T13:51:02;8.88;;;4.93;;
75700;SDS011;64321;48.796;44.740;2023-03-03T13:56:17;13.45;;;5.35;;
75700;SDS011;64321;48.796;44.740;2023-03-03T14:01:26;12.18;;;5.93;;
75700;SDS011;64321;48.796;44.740;2023-03-03T14:06:31;13.93;;;6.22;;
75700;SDS011;64321;48.796;44.740;2023-03-03T14:11:46;10.70;;;6.05;;
75700;SDS011;64321;48.796;44.740;2023-03-03T14:27:25;13.27;;;4.85;;
75700;SDS011;64321;48.796;44.740;2023-03-03T14:32:28;11.30;;;4.55;;
75700;SDS011;64321;48.796;44.740;2023-03-03T14:37:45;11.40;;;4.60;;
75700;SDS011;64321;48.796;44.740;2023-03-03T14:42:52;10.00;;;4.95;;
75700;SDS011;64321;48.796;44.740;2023-03-03T14:47:55;14.10;;;6.15;;
75700;SDS011;64321;48.796;44.740;2023-03-03T15:03:43;15.57;;;6.13;;
75700;SDS011;64321;48.796;44.740;2023-03-03T15:08:46;12.43;;;3.83;;
75700;SDS011;64321;48.796;44.740;2023-03-03T15:13:48;12.07;;;5.90;;
75700;SDS011;64321;48.796;44.740;2023-03-03T15:34:24;20.20;;;8.52;;
75700;SDS011;64321;48.796;44.740;2023-03-03T15:44:48;12.25;;;5.95;;
75700;SDS011;64321;48.796;44.740;2023-03-03T15:50:17;13.43;;;6.80;;
75700;SDS011;64321;48.796;44.740;2023-03-03T16:00:34;13.18;;;4.68;;
75700;SDS011;64321;48.796;44.740;2023-03-03T16:05:43;14.50;;;5.78;;
75700;SDS011;64321;48.796;44.740;2023-03-03T16:10:54;16.00;;;5.90;;
75700;SDS011;64321;48.796;44.740;2023-03-03T16:16:11;13.35;;;6.72;;
75700;SDS011;64321;48.796;44.740;2023-03-03T16:31:35;14.75;;;5.70;;
75700;SDS011;64321;48.796;44.740;2023-03-03T17:03:27;11.60;;;6.40;;
75700;SDS011;64321;48.796;44.740;2023-03-03T17:24:35;13.30;;;5.72;;
75700;SDS011;64321;48.796;44.740;2023-03-03T17:45:19;11.60;;;5.28;;
75700;SDS011;64321;48.796;44.740;2023-03-03T17:55:39;13.25;;;5.75;;
75700;SDS011;64321;48.796;44.740;2023-03-03T18:11:21;9.10;;;4.15;;
75700;SDS011;64321;48.796;44.740;2023-03-03T18:32:20;7.78;;;4.57;;
75700;SDS011;64321;48.796;44.740;2023-03-03T18:58:39;9.77;;;3.90;;
75700;SDS011;64321;48.796;44.740;2023-03-03T19:08:52;6.78;;;3.75;;
75700;SDS011;64321;48.796;44.740;2023-03-03T19:19:21;8.30;;;4.38;;
75700;SDS011;64321;48.796;44.740;2023-03-03T19:34:33;9.20;;;4.30;;
75700;SDS011;64321;48.796;44.740;2023-03-03T19:40:03;7.57;;;4.30;;
75700;SDS011;64321;48.796;44.740;2023-03-03T19:50:13;9.32;;;4.43;;
75700;SDS011;64321;48.796;44.740;2023-03-03T20:06:05;5.45;;;2.72;;
75700;SDS011;64321;48.796;44.740;2023-03-03T20:11:29;7.32;;;4.05;;
75700;SDS011;64321;48.796;44.740;2023-03-03T20:16:38;6.10;;;3.35;;
75700;SDS011;64321;48.796;44.740;2023-03-03T20:32:14;9.32;;;3.67;;
75700;SDS011;64321;48.796;44.740;2023-03-03T20:37:23;6.13;;;3.60;;
75700;SDS011;64321;48.796;44.740;2023-03-03T21:03:40;10.20;;;4.13;;
75700;SDS011;64321;48.796;44.740;2023-03-03T21:13:50;5.10;;;3.28;;
75700;SDS011;64321;48.796;44.740;2023-03-03T21:19:04;7.15;;;3.30;;
75700;SDS011;64321;48.796;44.740;2023-03-03T21:29:26;7.28;;;3.45;;
75700;SDS011;64321;48.796;44.740;2023-03-03T21:39:35;8.27;;;3.42;;
75700;SDS011;64321;48.796;44.740;2023-03-03T21:49:45;5.95;;;3.05;;
75700;SDS011;64321;48.796;44.740;2023-03-03T21:54:48;6.18;;;4.03;;
75700;SDS011;64321;48.796;44.740;2023-03-03T21:59:50;5.93;;;3.20;;
75700;SDS011;64321;48.796;44.740;2023-03-03T22:04:53;6.20;;;3.53;;
75700;SDS011;64321;48.796;44.740;2023-03-03T22:09:56;6.88;;;3.45;;
75700;SDS011;64321;48.796;44.740;2023-03-03T22:14:58;6.82;;;3.92;;
75700;SDS011;64321;48.796;44.740;2023-03-03T22:20:00;8.90;;;4.18;;
75700;SDS011;64321;48.796;44.740;2023-03-03T22:25:04;7.43;;;4.03;;
75700;SDS011;64321;48.796;44.740;2023-03-03T22:30:06;8.75;;;3.85;;
75700;SDS011;64321;48.796;44.740;2023-03-03T22:35:09;6.13;;;4.03;;
75700;SDS011;64321;48.796;44.740;2023-03-03T22:40:11;7.13;;;3.78;;
75700;SDS011;64321;48.796;44.740;2023-03-03T22:45:13;6.53;;;2.97;;
75700;SDS011;64321;48.796;44.740;2023-03-03T22:50:16;7.45;;;3.60;;
75700;SDS011;64321;48.796;44.740;2023-03-03T22:55:18;7.43;;;3.47;;
75700;SDS011;64321;48.796;44.740;2023-03-03T23:00:20;6.50;;;3.78;;
75700;SDS011;64321;48.796;44.740;2023-03-03T23:05:22;6.90;;;4.00;;
75700;SDS011;64321;48.796;44.740;2023-03-03T23:10:24;8.45;;;4.35;;
75700;SDS011;64321;48.796;44.740;2023-03-03T23:15:27;12.70;;;4.30;;
75700;SDS011;64321;48.796;44.740;2023-03-03T23:20:29;8.63;;;4.90;;
75700;SDS011;64321;48.796;44.740;2023-03-03T23:25:32;10.95;;;5.32;;
75700;SDS011;64321;48.796;44.740;2023-03-03T23:30:35;9.48;;;5.20;;
75700;SDS011;64321;48.796;44.740;2023-03-03T23:35:37;9.68;;;4.95;;
75700;SDS011;64321;48.796;44.740;2023-03-03T23:40:42;10.30;;;4.95;;
75700;SDS011;64321;48.796;44.740;2023-03-03T23:45:45;8.75;;;4.68;;
75700;SDS011;64321;48.796;44.740;2023-03-03T23:50:47;7.38;;;4.45;;
75700;SDS011;64321;48.796;44.740;2023-03-03T23:55:49;8.40;;;4.72;;
